sensor_id;sensor_type;location;lat;lon;timestamp;P1;durP1;ratioP1;P2;durP2;ratioP2
7719;SDS011;3902;49.474;8.616;2022-10-17T00:00:18;3.43;;;3.13;;
7719;SDS011;3902;49.474;8.616;2022-10-17T00:02:44;3.20;;;2.63;;
7719;SDS011;3902;49.474;8.616;2022-10-17T00:05:09;3.67;;;2.60;;
7719;SDS011;3902;49.474;8.616;2022-10-17T00:07:36;4.17;;;2.60;;
7719;SDS011;3902;49.474;8.616;2022-10-17T00:10:02;3.10;;;2.80;;
7719;SDS011;3902;49.474;8.616;2022-10-17T00:12:28;3.30;;;3.00;;
7719;SDS011;3902;49.474;8.616;2022-10-17T00:14:53;3.27;;;2.73;;
7719;SDS011;3902;49.474;8.616;2022-10-17T00:17:19;5.80;;;3.17;;
7719;SDS011;3902;49.474;8.616;2022-10-17T00:19:44;2.57;;;2.37;;
7719;SDS011;3902;49.474;8.616;2022-10-17T00:22:10;6.73;;;2.73;;
7719;SDS011;3902;49.474;8.616;2022-10-17T00:24:36;2.97;;;2.73;;
7719;SDS011;3902;49.474;8.616;2022-10-17T00:27:02;2.80;;;2.60;;
7719;SDS011;3902;49.474;8.616;2022-10-17T00:29:27;2.70;;;2.50;;
7719;SDS011;3902;49.474;8.616;2022-10-17T00:31:54;2.70;;;2.50;;
7719;SDS011;3902;49.474;8.616;2022-10-17T00:34:20;4.00;;;2.60;;
7719;SDS011;3902;49.474;8.616;2022-10-17T00:36:47;4.20;;;2.23;;
7719;SDS011;3902;49.474;8.616;2022-10-17T00:39:12;5.80;;;2.27;;
7719;SDS011;3902;49.474;8.616;2022-10-17T00:41:38;2.57;;;2.37;;
7719;SDS011;3902;49.474;8.616;2022-10-17T00:44:05;2.90;;;2.57;;
7719;SDS011;3902;49.474;8.616;2022-10-17T00:46:51;2.83;;;2.10;;
7719;SDS011;3902;49.474;8.616;2022-10-17T00:49:16;3.00;;;2.80;;
7719;SDS011;3902;49.474;8.616;2022-10-17T00:51:44;2.73;;;2.47;;
7719;SDS011;3902;49.474;8.616;2022-10-17T00:54:13;2.87;;;2.10;;
7719;SDS011;3902;49.474;8.616;2022-10-17T00:56:39;2.30;;;2.10;;
7719;SDS011;3902;49.474;8.616;2022-10-17T00:59:09;3.57;;;1.93;;
7719;SDS011;3902;49.474;8.616;2022-10-17T01:01:36;2.50;;;2.23;;
7719;SDS011;3902;49.474;8.616;2022-10-17T01:04:02;3.10;;;2.40;;
7719;SDS011;3902;49.474;8.616;2022-10-17T01:06:28;2.30;;;2.10;;
7719;SDS011;3902;49.474;8.616;2022-10-17T01:08:53;5.00;;;2.27;;
7719;SDS011;3902;49.474;8.616;2022-10-17T01:11:21;3.87;;;2.33;;
7719;SDS011;3902;49.474;8.616;2022-10-17T01:14:08;6.03;;;1.90;;
7719;SDS011;3902;49.474;8.616;2022-10-17T01:16:51;2.60;;;2.07;;
7719;SDS011;3902;49.474;8.616;2022-10-17T01:19:34;2.00;;;1.90;;
7719;SDS011;3902;49.474;8.616;2022-10-17T01:31:08;6.43;;;2.43;;
7719;SDS011;3902;49.474;8.616;2022-10-17T01:38:36;2.77;;;2.20;;
7719;SDS011;3902;49.474;8.616;2022-10-17T01:41:07;2.60;;;2.40;;
7719;SDS011;3902;49.474;8.616;2022-10-17T01:43:46;2.23;;;1.90;;
7719;SDS011;3902;49.474;8.616;2022-10-17T01:46:28;4.47;;;2.23;;
7719;SDS011;3902;49.474;8.616;2022-10-17T01:49:01;2.07;;;1.97;;
7719;SDS011;3902;49.474;8.616;2022-10-17T01:51:33;3.43;;;2.20;;
7719;SDS011;3902;49.474;8.616;2022-10-17T01:54:08;2.60;;;2.40;;
7719;SDS011;3902;49.474;8.616;2022-10-17T01:56:43;2.63;;;2.13;;
7719;SDS011;3902;49.474;8.616;2022-10-17T01:59:13;4.13;;;2.60;;
7719;SDS011;3902;49.474;8.616;2022-10-17T02:01:42;2.90;;;2.27;;
7719;SDS011;3902;49.474;8.616;2022-10-17T02:04:09;2.40;;;2.20;;
7719;SDS011;3902;49.474;8.616;2022-10-17T02:06:36;2.73;;;2.20;;
7719;SDS011;3902;49.474;8.616;2022-10-17T02:09:14;2.60;;;2.20;;
7719;SDS011;3902;49.474;8.616;2022-10-17T02:11:54;4.17;;;2.23;;
7719;SDS011;3902;49.474;8.616;2022-10-17T02:14:57;2.07;;;1.87;;
7719;SDS011;3902;49.474;8.616;2022-10-17T02:17:51;2.20;;;2.00;;
7719;SDS011;3902;49.474;8.616;2022-10-17T02:20:33;3.90;;;2.57;;
7719;SDS011;3902;49.474;8.616;2022-10-17T02:23:08;3.30;;;2.40;;
7719;SDS011;3902;49.474;8.616;2022-10-17T02:31:28;2.10;;;2.00;;
7719;SDS011;3902;49.474;8.616;2022-10-17T02:34:21;2.00;;;1.80;;
7719;SDS011;3902;49.474;8.616;2022-10-17T02:36:54;2.33;;;1.70;;
7719;SDS011;3902;49.474;8.616;2022-10-17T02:39:22;2.13;;;1.90;;
7719;SDS011;3902;49.474;8.616;2022-10-17T02:41:49;2.13;;;1.93;;
7719;SDS011;3902;49.474;8.616;2022-10-17T02:44:19;2.77;;;2.57;;
7719;SDS011;3902;49.474;8.616;2022-10-17T02:46:52;2.10;;;2.00;;
7719;SDS011;3902;49.474;8.616;2022-10-17T02:49:26;2.80;;;2.10;;
7719;SDS011;3902;49.474;8.616;2022-10-17T02:54:38;2.43;;;2.03;;
7719;SDS011;3902;49.474;8.616;2022-10-17T02:57:17;6.70;;;2.30;;
7719;SDS011;3902;49.474;8.616;2022-10-17T02:59:47;2.20;;;2.00;;
7719;SDS011;3902;49.474;8.616;2022-10-17T03:02:14;1.90;;;1.80;;
7719;SDS011;3902;49.474;8.616;2022-10-17T03:04:43;3.70;;;2.37;;
7719;SDS011;3902;49.474;8.616;2022-10-17T03:07:10;2.40;;;2.20;;
7719;SDS011;3902;49.474;8.616;2022-10-17T03:09:35;2.23;;;2.03;;
7719;SDS011;3902;49.474;8.616;2022-10-17T03:12:01;2.50;;;2.00;;
7719;SDS011;3902;49.474;8.616;2022-10-17T03:14:26;2.90;;;2.30;;
7719;SDS011;3902;49.474;8.616;2022-10-17T03:16:52;2.50;;;2.10;;
7719;SDS011;3902;49.474;8.616;2022-10-17T03:19:17;2.80;;;2.10;;
7719;SDS011;3902;49.474;8.616;2022-10-17T03:21:43;1.77;;;1.67;;
7719;SDS011;3902;49.474;8.616;2022-10-17T03:24:08;2.43;;;2.10;;
7719;SDS011;3902;49.474;8.616;2022-10-17T03:26:34;2.30;;;2.10;;
7719;SDS011;3902;49.474;8.616;2022-10-17T03:28:59;2.87;;;2.00;;
7719;SDS011;3902;49.474;8.616;2022-10-17T03:31:25;2.23;;;2.03;;
7719;SDS011;3902;49.474;8.616;2022-10-17T03:33:50;2.30;;;2.10;;
7719;SDS011;3902;49.474;8.616;2022-10-17T03:36:17;4.00;;;2.27;;
7719;SDS011;3902;49.474;8.616;2022-10-17T03:38:43;2.60;;;2.00;;
7719;SDS011;3902;49.474;8.616;2022-10-17T03:41:09;2.00;;;1.70;;
7719;SDS011;3902;49.474;8.616;2022-10-17T03:43:35;2.27;;;2.07;;
7719;SDS011;3902;49.474;8.616;2022-10-17T03:46:01;2.40;;;2.20;;
7719;SDS011;3902;49.474;8.616;2022-10-17T03:48:27;6.97;;;2.00;;
7719;SDS011;3902;49.474;8.616;2022-10-17T03:50:57;2.20;;;2.00;;
7719;SDS011;3902;49.474;8.616;2022-10-17T03:53:25;5.00;;;1.80;;
7719;SDS011;3902;49.474;8.616;2022-10-17T03:55:50;2.93;;;2.20;;
7719;SDS011;3902;49.474;8.616;2022-10-17T03:58:16;3.10;;;2.13;;
7719;SDS011;3902;49.474;8.616;2022-10-17T04:00:41;2.83;;;1.80;;
7719;SDS011;3902;49.474;8.616;2022-10-17T04:03:07;2.60;;;1.87;;
7719;SDS011;3902;49.474;8.616;2022-10-17T04:05:32;2.30;;;2.10;;
7719;SDS011;3902;49.474;8.616;2022-10-17T04:07:58;2.27;;;2.00;;
7719;SDS011;3902;49.474;8.616;2022-10-17T04:10:24;2.40;;;2.20;;
7719;SDS011;3902;49.474;8.616;2022-10-17T04:12:49;2.00;;;1.90;;
7719;SDS011;3902;49.474;8.616;2022-10-17T04:15:15;2.40;;;2.20;;
7719;SDS011;3902;49.474;8.616;2022-10-17T04:17:40;3.70;;;2.13;;
7719;SDS011;3902;49.474;8.616;2022-10-17T04:20:06;2.20;;;2.00;;
7719;SDS011;3902;49.474;8.616;2022-10-17T04:22:32;2.03;;;1.93;;
7719;SDS011;3902;49.474;8.616;2022-10-17T04:24:58;2.87;;;2.00;;
7719;SDS011;3902;49.474;8.616;2022-10-17T04:27:23;2.13;;;2.03;;
7719;SDS011;3902;49.474;8.616;2022-10-17T04:29:49;2.47;;;2.27;;
7719;SDS011;3902;49.474;8.616;2022-10-17T04:32:14;2.10;;;2.00;;
7719;SDS011;3902;49.474;8.616;2022-10-17T04:34:40;2.17;;;1.90;;
7719;SDS011;3902;49.474;8.616;2022-10-17T04:37:05;2.57;;;2.17;;
7719;SDS011;3902;49.474;8.616;2022-10-17T04:39:31;4.17;;;2.27;;
7719;SDS011;3902;49.474;8.616;2022-10-17T04:41:56;2.23;;;2.03;;
7719;SDS011;3902;49.474;8.616;2022-10-17T04:44:22;2.50;;;2.30;;
7719;SDS011;3902;49.474;8.616;2022-10-17T04:46:47;4.10;;;2.10;;
7719;SDS011;3902;49.474;8.616;2022-10-17T04:49:13;2.57;;;2.37;;
7719;SDS011;3902;49.474;8.616;2022-10-17T04:51:38;3.33;;;2.30;;
7719;SDS011;3902;49.474;8.616;2022-10-17T04:54:04;3.90;;;2.63;;
7719;SDS011;3902;49.474;8.616;2022-10-17T04:56:30;2.17;;;2.07;;
7719;SDS011;3902;49.474;8.616;2022-10-17T04:58:56;2.40;;;2.20;;
7719;SDS011;3902;49.474;8.616;2022-10-17T05:01:23;3.60;;;2.20;;
7719;SDS011;3902;49.474;8.616;2022-10-17T05:03:49;3.20;;;2.17;;
7719;SDS011;3902;49.474;8.616;2022-10-17T05:06:16;2.40;;;2.20;;
7719;SDS011;3902;49.474;8.616;2022-10-17T05:08:44;2.73;;;2.07;;
7719;SDS011;3902;49.474;8.616;2022-10-17T05:11:22;2.70;;;2.50;;
7719;SDS011;3902;49.474;8.616;2022-10-17T05:13:50;2.30;;;2.07;;
7719;SDS011;3902;49.474;8.616;2022-10-17T05:16:17;2.00;;;1.90;;
7719;SDS011;3902;49.474;8.616;2022-10-17T05:18:43;7.93;;;2.43;;
7719;SDS011;3902;49.474;8.616;2022-10-17T05:21:08;3.10;;;2.17;;
7719;SDS011;3902;49.474;8.616;2022-10-17T05:23:34;2.60;;;2.40;;
7719;SDS011;3902;49.474;8.616;2022-10-17T05:25:59;2.70;;;2.50;;
7719;SDS011;3902;49.474;8.616;2022-10-17T05:28:25;4.00;;;2.23;;
7719;SDS011;3902;49.474;8.616;2022-10-17T05:30:50;2.53;;;2.33;;
7719;SDS011;3902;49.474;8.616;2022-10-17T05:33:16;2.70;;;2.50;;
7719;SDS011;3902;49.474;8.616;2022-10-17T05:35:41;2.80;;;2.43;;
7719;SDS011;3902;49.474;8.616;2022-10-17T05:38:07;2.77;;;2.53;;
7719;SDS011;3902;49.474;8.616;2022-10-17T05:40:33;2.40;;;2.20;;
7719;SDS011;3902;49.474;8.616;2022-10-17T05:42:58;2.43;;;2.17;;
7719;SDS011;3902;49.474;8.616;2022-10-17T05:45:24;2.53;;;2.33;;
7719;SDS011;3902;49.474;8.616;2022-10-17T05:47:49;2.40;;;2.20;;
7719;SDS011;3902;49.474;8.616;2022-10-17T05:50:15;2.60;;;2.40;;
7719;SDS011;3902;49.474;8.616;2022-10-17T05:52:41;3.00;;;2.30;;
7719;SDS011;3902;49.474;8.616;2022-10-17T05:55:07;2.57;;;2.37;;
7719;SDS011;3902;49.474;8.616;2022-10-17T05:57:33;2.60;;;2.40;;
7719;SDS011;3902;49.474;8.616;2022-10-17T05:59:59;2.40;;;2.20;;
7719;SDS011;3902;49.474;8.616;2022-10-17T06:02:24;5.00;;;2.70;;
7719;SDS011;3902;49.474;8.616;2022-10-17T06:04:50;2.73;;;2.50;;
7719;SDS011;3902;49.474;8.616;2022-10-17T06:07:15;2.20;;;2.00;;
7719;SDS011;3902;49.474;8.616;2022-10-17T06:09:41;2.40;;;2.20;;
7719;SDS011;3902;49.474;8.616;2022-10-17T06:12:07;2.73;;;2.53;;
7719;SDS011;3902;49.474;8.616;2022-10-17T06:14:33;3.00;;;2.33;;
7719;SDS011;3902;49.474;8.616;2022-10-17T06:16:58;5.53;;;2.27;;
7719;SDS011;3902;49.474;8.616;2022-10-17T06:19:25;2.80;;;2.60;;
7719;SDS011;3902;49.474;8.616;2022-10-17T06:21:50;2.33;;;2.17;;
7719;SDS011;3902;49.474;8.616;2022-10-17T06:24:16;2.27;;;2.07;;
7719;SDS011;3902;49.474;8.616;2022-10-17T06:26:41;3.43;;;3.13;;
7719;SDS011;3902;49.474;8.616;2022-10-17T06:29:07;2.70;;;2.50;;
7719;SDS011;3902;49.474;8.616;2022-10-17T06:31:32;2.73;;;2.53;;
7719;SDS011;3902;49.474;8.616;2022-10-17T06:33:58;6.77;;;2.40;;
7719;SDS011;3902;49.474;8.616;2022-10-17T06:36:23;2.80;;;2.50;;
7719;SDS011;3902;49.474;8.616;2022-10-17T06:38:49;2.80;;;2.60;;
7719;SDS011;3902;49.474;8.616;2022-10-17T06:41:15;2.70;;;2.50;;
7719;SDS011;3902;49.474;8.616;2022-10-17T06:43:43;2.77;;;2.10;;
7719;SDS011;3902;49.474;8.616;2022-10-17T06:46:10;3.30;;;2.70;;
7719;SDS011;3902;49.474;8.616;2022-10-17T06:48:37;2.50;;;2.30;;
7719;SDS011;3902;49.474;8.616;2022-10-17T06:51:03;2.20;;;2.00;;
7719;SDS011;3902;49.474;8.616;2022-10-17T06:53:31;3.20;;;2.50;;
7719;SDS011;3902;49.474;8.616;2022-10-17T06:55:58;4.80;;;3.33;;
7719;SDS011;3902;49.474;8.616;2022-10-17T06:58:28;4.63;;;3.60;;
7719;SDS011;3902;49.474;8.616;2022-10-17T07:01:04;3.70;;;3.23;;
7719;SDS011;3902;49.474;8.616;2022-10-17T07:03:31;5.63;;;3.40;;
7719;SDS011;3902;49.474;8.616;2022-10-17T07:05:57;5.10;;;3.37;;
7719;SDS011;3902;49.474;8.616;2022-10-17T07:08:23;4.33;;;3.70;;
7719;SDS011;3902;49.474;8.616;2022-10-17T07:10:49;10.20;;;4.87;;
7719;SDS011;3902;49.474;8.616;2022-10-17T07:13:15;4.80;;;4.03;;
7719;SDS011;3902;49.474;8.616;2022-10-17T07:15:41;4.03;;;3.53;;
7719;SDS011;3902;49.474;8.616;2022-10-17T07:18:06;4.93;;;4.00;;
7719;SDS011;3902;49.474;8.616;2022-10-17T07:20:32;4.73;;;3.77;;
7719;SDS011;3902;49.474;8.616;2022-10-17T07:22:58;4.43;;;3.30;;
7719;SDS011;3902;49.474;8.616;2022-10-17T07:25:24;3.60;;;3.30;;
7719;SDS011;3902;49.474;8.616;2022-10-17T07:27:50;3.57;;;3.27;;
7719;SDS011;3902;49.474;8.616;2022-10-17T07:30:16;4.20;;;3.13;;
7719;SDS011;3902;49.474;8.616;2022-10-17T07:32:43;5.00;;;3.70;;
7719;SDS011;3902;49.474;8.616;2022-10-17T07:35:09;4.40;;;3.57;;
7719;SDS011;3902;49.474;8.616;2022-10-17T07:37:35;5.47;;;3.23;;
7719;SDS011;3902;49.474;8.616;2022-10-17T07:40:01;5.07;;;2.70;;
7719;SDS011;3902;49.474;8.616;2022-10-17T07:42:27;4.23;;;3.00;;
7719;SDS011;3902;49.474;8.616;2022-10-17T07:44:53;3.23;;;2.77;;
7719;SDS011;3902;49.474;8.616;2022-10-17T07:47:19;3.10;;;2.77;;
7719;SDS011;3902;49.474;8.616;2022-10-17T07:49:45;5.20;;;2.93;;
7719;SDS011;3902;49.474;8.616;2022-10-17T07:52:14;2.57;;;2.37;;
7719;SDS011;3902;49.474;8.616;2022-10-17T07:54:40;2.53;;;2.33;;
7719;SDS011;3902;49.474;8.616;2022-10-17T07:57:06;4.67;;;2.50;;
7719;SDS011;3902;49.474;8.616;2022-10-17T07:59:32;2.97;;;2.70;;
7719;SDS011;3902;49.474;8.616;2022-10-17T08:01:58;2.40;;;2.20;;
7719;SDS011;3902;49.474;8.616;2022-10-17T08:04:25;2.87;;;2.57;;
7719;SDS011;3902;49.474;8.616;2022-10-17T08:06:51;2.60;;;2.40;;
7719;SDS011;3902;49.474;8.616;2022-10-17T08:09:17;3.43;;;2.60;;
7719;SDS011;3902;49.474;8.616;2022-10-17T08:11:43;2.43;;;2.20;;
7719;SDS011;3902;49.474;8.616;2022-10-17T08:14:09;2.33;;;2.07;;
7719;SDS011;3902;49.474;8.616;2022-10-17T08:16:35;2.60;;;2.40;;
7719;SDS011;3902;49.474;8.616;2022-10-17T08:19:01;2.60;;;2.40;;
7719;SDS011;3902;49.474;8.616;2022-10-17T08:21:27;2.20;;;2.00;;
7719;SDS011;3902;49.474;8.616;2022-10-17T08:23:53;2.67;;;2.20;;
7719;SDS011;3902;49.474;8.616;2022-10-17T08:26:18;3.27;;;2.20;;
7719;SDS011;3902;49.474;8.616;2022-10-17T08:28:44;2.20;;;2.00;;
7719;SDS011;3902;49.474;8.616;2022-10-17T08:31:11;4.17;;;2.47;;
7719;SDS011;3902;49.474;8.616;2022-10-17T08:33:39;2.10;;;1.90;;
7719;SDS011;3902;49.474;8.616;2022-10-17T08:36:06;2.20;;;2.00;;
7719;SDS011;3902;49.474;8.616;2022-10-17T08:38:32;2.40;;;2.20;;
7719;SDS011;3902;49.474;8.616;2022-10-17T08:41:00;2.60;;;2.40;;
7719;SDS011;3902;49.474;8.616;2022-10-17T08:43:39;2.40;;;2.20;;
7719;SDS011;3902;49.474;8.616;2022-10-17T08:46:14;2.03;;;1.93;;
7719;SDS011;3902;49.474;8.616;2022-10-17T08:48:41;3.67;;;2.40;;
7719;SDS011;3902;49.474;8.616;2022-10-17T08:51:25;2.23;;;2.03;;
7719;SDS011;3902;49.474;8.616;2022-10-17T08:54:00;2.67;;;2.47;;
7719;SDS011;3902;49.474;8.616;2022-10-17T08:56:41;2.30;;;2.10;;
7719;SDS011;3902;49.474;8.616;2022-10-17T08:59:11;3.40;;;2.30;;
7719;SDS011;3902;49.474;8.616;2022-10-17T09:07:23;3.83;;;1.97;;
7719;SDS011;3902;49.474;8.616;2022-10-17T09:13:13;2.10;;;1.90;;
7719;SDS011;3902;49.474;8.616;2022-10-17T09:18:47;3.13;;;2.60;;
7719;SDS011;3902;49.474;8.616;2022-10-17T09:21:41;4.57;;;2.53;;
7719;SDS011;3902;49.474;8.616;2022-10-17T09:27:11;2.97;;;2.70;;
7719;SDS011;3902;49.474;8.616;2022-10-17T09:32:52;2.80;;;2.50;;
7719;SDS011;3902;49.474;8.616;2022-10-17T09:35:18;4.03;;;2.57;;
7719;SDS011;3902;49.474;8.616;2022-10-17T09:37:45;2.50;;;2.30;;
7719;SDS011;3902;49.474;8.616;2022-10-17T09:40:14;6.30;;;2.70;;
7719;SDS011;3902;49.474;8.616;2022-10-17T09:42:43;3.40;;;2.20;;
7719;SDS011;3902;49.474;8.616;2022-10-17T09:50:35;3.13;;;2.33;;
7719;SDS011;3902;49.474;8.616;2022-10-17T09:56:14;3.10;;;2.60;;
7719;SDS011;3902;49.474;8.616;2022-10-17T10:01:13;3.20;;;2.67;;
7719;SDS011;3902;49.474;8.616;2022-10-17T10:03:41;4.50;;;2.50;;
7719;SDS011;3902;49.474;8.616;2022-10-17T10:06:16;4.00;;;2.80;;
7719;SDS011;3902;49.474;8.616;2022-10-17T10:11:14;5.33;;;2.40;;
7719;SDS011;3902;49.474;8.616;2022-10-17T10:13:41;6.93;;;2.67;;
7719;SDS011;3902;49.474;8.616;2022-10-17T10:18:44;4.10;;;2.77;;
7719;SDS011;3902;49.474;8.616;2022-10-17T10:21:15;5.10;;;2.40;;
7719;SDS011;3902;49.474;8.616;2022-10-17T10:23:45;5.47;;;2.60;;
7719;SDS011;3902;49.474;8.616;2022-10-17T10:26:33;3.47;;;2.97;;
7719;SDS011;3902;49.474;8.616;2022-10-17T10:29:05;3.00;;;2.53;;
7719;SDS011;3902;49.474;8.616;2022-10-17T10:31:44;3.00;;;2.70;;
7719;SDS011;3902;49.474;8.616;2022-10-17T10:34:21;4.80;;;2.90;;
7719;SDS011;3902;49.474;8.616;2022-10-17T10:37:00;4.50;;;2.30;;
7719;SDS011;3902;49.474;8.616;2022-10-17T10:39:32;4.30;;;2.90;;
7719;SDS011;3902;49.474;8.616;2022-10-17T10:42:01;2.87;;;2.67;;
7719;SDS011;3902;49.474;8.616;2022-10-17T10:44:30;3.10;;;2.63;;
7719;SDS011;3902;49.474;8.616;2022-10-17T10:47:07;2.80;;;2.53;;
7719;SDS011;3902;49.474;8.616;2022-10-17T10:49:39;2.60;;;2.33;;
7719;SDS011;3902;49.474;8.616;2022-10-17T10:52:06;2.50;;;2.30;;
7719;SDS011;3902;49.474;8.616;2022-10-17T10:54:40;3.93;;;2.60;;
7719;SDS011;3902;49.474;8.616;2022-10-17T10:57:13;2.50;;;2.20;;
7719;SDS011;3902;49.474;8.616;2022-10-17T10:59:52;11.07;;;2.43;;
7719;SDS011;3902;49.474;8.616;2022-10-17T11:05:56;4.27;;;2.80;;
7719;SDS011;3902;49.474;8.616;2022-10-17T11:08:01;3.13;;;2.80;;
7719;SDS011;3902;49.474;8.616;2022-10-17T11:13:47;2.60;;;2.40;;
7719;SDS011;3902;49.474;8.616;2022-10-17T11:16:21;8.60;;;2.90;;
7719;SDS011;3902;49.474;8.616;2022-10-17T11:19:07;4.10;;;2.60;;
7719;SDS011;3902;49.474;8.616;2022-10-17T11:21:47;2.40;;;2.20;;
7719;SDS011;3902;49.474;8.616;2022-10-17T11:24:20;3.40;;;2.23;;
7719;SDS011;3902;49.474;8.616;2022-10-17T11:26:59;2.30;;;2.10;;
7719;SDS011;3902;49.474;8.616;2022-10-17T11:29:28;2.43;;;2.23;;
7719;SDS011;3902;49.474;8.616;2022-10-17T11:31:55;4.47;;;2.20;;
7719;SDS011;3902;49.474;8.616;2022-10-17T11:34:26;2.83;;;2.45;;
7719;SDS011;3902;49.474;8.616;2022-10-17T11:37:00;3.33;;;2.10;;
7719;SDS011;3902;49.474;8.616;2022-10-17T11:42:02;4.20;;;2.15;;
7719;SDS011;3902;49.474;8.616;2022-10-17T11:44:34;5.85;;;2.20;;
7719;SDS011;3902;49.474;8.616;2022-10-17T11:49:59;2.40;;;2.05;;
7719;SDS011;3902;49.474;8.616;2022-10-17T11:52:37;2.50;;;2.30;;
7719;SDS011;3902;49.474;8.616;2022-10-17T11:55:09;2.95;;;2.40;;
7719;SDS011;3902;49.474;8.616;2022-10-17T12:03:28;2.40;;;2.20;;
7719;SDS011;3902;49.474;8.616;2022-10-17T12:11:23;4.15;;;2.83;;
7719;SDS011;3902;49.474;8.616;2022-10-17T12:16:57;2.45;;;2.20;;
7719;SDS011;3902;49.474;8.616;2022-10-17T12:19:25;3.03;;;2.72;;
7719;SDS011;3902;49.474;8.616;2022-10-17T12:21:58;2.47;;;2.28;;
7719;SDS011;3902;49.474;8.616;2022-10-17T12:24:43;3.70;;;2.60;;
7719;SDS011;3902;49.474;8.616;2022-10-17T12:30:13;3.03;;;2.38;;
7719;SDS011;3902;49.474;8.616;2022-10-17T12:32:55;3.65;;;2.30;;
7719;SDS011;3902;49.474;8.616;2022-10-17T12:35:36;2.38;;;2.17;;
7719;SDS011;3902;49.474;8.616;2022-10-17T12:38:22;3.92;;;2.25;;
7719;SDS011;3902;49.474;8.616;2022-10-17T12:40:50;3.03;;;2.30;;
7719;SDS011;3902;49.474;8.616;2022-10-17T12:45:55;3.50;;;2.47;;
7719;SDS011;3902;49.474;8.616;2022-10-17T12:53:40;6.03;;;2.75;;
7719;SDS011;3902;49.474;8.616;2022-10-17T12:56:36;2.55;;;2.20;;
7719;SDS011;3902;49.474;8.616;2022-10-17T12:59:27;4.45;;;2.20;;
7719;SDS011;3902;49.474;8.616;2022-10-17T13:01:57;9.23;;;2.47;;
7719;SDS011;3902;49.474;8.616;2022-10-17T13:04:25;2.85;;;2.25;;
7719;SDS011;3902;49.474;8.616;2022-10-17T13:06:52;6.90;;;2.50;;
7719;SDS011;3902;49.474;8.616;2022-10-17T13:09:30;3.35;;;2.28;;
7719;SDS011;3902;49.474;8.616;2022-10-17T13:12:01;2.30;;;2.10;;
7719;SDS011;3902;49.474;8.616;2022-10-17T13:14:29;3.13;;;2.53;;
7719;SDS011;3902;49.474;8.616;2022-10-17T13:16:58;7.70;;;2.42;;
7719;SDS011;3902;49.474;8.616;2022-10-17T13:19:25;3.63;;;2.45;;
7719;SDS011;3902;49.474;8.616;2022-10-17T13:21:55;2.45;;;2.25;;
7719;SDS011;3902;49.474;8.616;2022-10-17T13:24:28;2.50;;;2.20;;
7719;SDS011;3902;49.474;8.616;2022-10-17T13:26:54;2.65;;;2.10;;
7719;SDS011;3902;49.474;8.616;2022-10-17T13:29:20;3.72;;;2.47;;
7719;SDS011;3902;49.474;8.616;2022-10-17T13:31:54;2.47;;;2.20;;
7719;SDS011;3902;49.474;8.616;2022-10-17T13:34:24;7.38;;;2.50;;
7719;SDS011;3902;49.474;8.616;2022-10-17T13:36:51;5.22;;;2.35;;
7719;SDS011;3902;49.474;8.616;2022-10-17T13:39:19;3.53;;;2.40;;
7719;SDS011;3902;49.474;8.616;2022-10-17T13:41:48;3.50;;;2.45;;
7719;SDS011;3902;49.474;8.616;2022-10-17T13:44:22;2.42;;;2.20;;
7719;SDS011;3902;49.474;8.616;2022-10-17T13:46:50;2.95;;;2.38;;
7719;SDS011;3902;49.474;8.616;2022-10-17T13:49:18;2.72;;;2.53;;
7719;SDS011;3902;49.474;8.616;2022-10-17T13:51:53;2.97;;;2.50;;
7719;SDS011;3902;49.474;8.616;2022-10-17T13:57:04;5.25;;;2.95;;
7719;SDS011;3902;49.474;8.616;2022-10-17T13:59:33;6.85;;;2.47;;
7719;SDS011;3902;49.474;8.616;2022-10-17T14:02:05;2.55;;;2.35;;
7719;SDS011;3902;49.474;8.616;2022-10-17T14:04:37;1.75;;;1.65;;
7719;SDS011;3902;49.474;8.616;2022-10-17T14:07:03;4.03;;;2.13;;
7719;SDS011;3902;49.474;8.616;2022-10-17T14:09:31;2.60;;;2.40;;
7719;SDS011;3902;49.474;8.616;2022-10-17T14:12:10;2.22;;;2.10;;
7719;SDS011;3902;49.474;8.616;2022-10-17T14:14:37;3.00;;;2.10;;
7719;SDS011;3902;49.474;8.616;2022-10-17T14:17:13;2.45;;;2.25;;
7719;SDS011;3902;49.474;8.616;2022-10-17T14:19:44;2.50;;;2.30;;
7719;SDS011;3902;49.474;8.616;2022-10-17T14:22:14;3.67;;;2.30;;
7719;SDS011;3902;49.474;8.616;2022-10-17T14:24:46;3.10;;;2.42;;
7719;SDS011;3902;49.474;8.616;2022-10-17T14:27:27;3.28;;;2.65;;
7719;SDS011;3902;49.474;8.616;2022-10-17T14:30:05;2.78;;;2.58;;
7719;SDS011;3902;49.474;8.616;2022-10-17T14:32:53;2.65;;;2.40;;
7719;SDS011;3902;49.474;8.616;2022-10-17T14:35:21;2.77;;;2.57;;
7719;SDS011;3902;49.474;8.616;2022-10-17T14:37:47;5.35;;;2.97;;
7719;SDS011;3902;49.474;8.616;2022-10-17T14:42:42;2.93;;;2.60;;
7719;SDS011;3902;49.474;8.616;2022-10-17T14:45:13;3.40;;;2.80;;
7719;SDS011;3902;49.474;8.616;2022-10-17T14:47:50;3.70;;;2.50;;
7719;SDS011;3902;49.474;8.616;2022-10-17T14:50:22;3.27;;;2.47;;
7719;SDS011;3902;49.474;8.616;2022-10-17T14:53:00;2.87;;;2.20;;
7719;SDS011;3902;49.474;8.616;2022-10-17T14:55:28;2.60;;;2.40;;
7719;SDS011;3902;49.474;8.616;2022-10-17T14:57:54;3.20;;;2.93;;
7719;SDS011;3902;49.474;8.616;2022-10-17T15:00:21;2.50;;;2.30;;
7719;SDS011;3902;49.474;8.616;2022-10-17T15:02:47;1.93;;;1.80;;
7719;SDS011;3902;49.474;8.616;2022-10-17T15:05:14;2.60;;;2.40;;
7719;SDS011;3902;49.474;8.616;2022-10-17T15:07:40;4.57;;;2.17;;
7719;SDS011;3902;49.474;8.616;2022-10-17T15:10:09;4.03;;;2.87;;
7719;SDS011;3902;49.474;8.616;2022-10-17T15:12:52;2.60;;;2.20;;
7719;SDS011;3902;49.474;8.616;2022-10-17T15:15:18;3.90;;;2.40;;
7719;SDS011;3902;49.474;8.616;2022-10-17T15:17:43;3.23;;;2.47;;
7719;SDS011;3902;49.474;8.616;2022-10-17T15:20:11;3.10;;;2.57;;
7719;SDS011;3902;49.474;8.616;2022-10-17T15:22:39;3.30;;;2.23;;
7719;SDS011;3902;49.474;8.616;2022-10-17T15:25:05;5.13;;;2.67;;
7719;SDS011;3902;49.474;8.616;2022-10-17T15:27:31;3.13;;;2.50;;
7719;SDS011;3902;49.474;8.616;2022-10-17T15:29:56;6.00;;;3.03;;
7719;SDS011;3902;49.474;8.616;2022-10-17T15:32:22;2.87;;;2.43;;
7719;SDS011;3902;49.474;8.616;2022-10-17T15:34:48;5.23;;;3.00;;
7719;SDS011;3902;49.474;8.616;2022-10-17T15:37:15;2.90;;;2.60;;
7719;SDS011;3902;49.474;8.616;2022-10-17T15:39:50;2.90;;;2.50;;
7719;SDS011;3902;49.474;8.616;2022-10-17T15:42:18;5.47;;;3.10;;
7719;SDS011;3902;49.474;8.616;2022-10-17T15:44:50;3.43;;;2.70;;
7719;SDS011;3902;49.474;8.616;2022-10-17T15:47:21;2.80;;;2.57;;
7719;SDS011;3902;49.474;8.616;2022-10-17T15:49:48;2.83;;;2.63;;
7719;SDS011;3902;49.474;8.616;2022-10-17T15:52:14;3.40;;;2.73;;
7719;SDS011;3902;49.474;8.616;2022-10-17T15:54:39;3.10;;;2.43;;
7719;SDS011;3902;49.474;8.616;2022-10-17T15:57:05;2.90;;;2.60;;
7719;SDS011;3902;49.474;8.616;2022-10-17T15:59:31;2.30;;;2.10;;
7719;SDS011;3902;49.474;8.616;2022-10-17T16:01:58;3.30;;;2.10;;
7719;SDS011;3902;49.474;8.616;2022-10-17T16:04:24;2.60;;;2.40;;
7719;SDS011;3902;49.474;8.616;2022-10-17T16:06:51;4.00;;;2.50;;
7719;SDS011;3902;49.474;8.616;2022-10-17T16:09:18;2.50;;;2.30;;
7719;SDS011;3902;49.474;8.616;2022-10-17T16:11:44;3.33;;;2.60;;
7719;SDS011;3902;49.474;8.616;2022-10-17T16:14:10;6.63;;;2.70;;
7719;SDS011;3902;49.474;8.616;2022-10-17T16:16:38;2.40;;;2.20;;
7719;SDS011;3902;49.474;8.616;2022-10-17T16:19:04;2.50;;;2.30;;
7719;SDS011;3902;49.474;8.616;2022-10-17T16:21:30;4.30;;;2.70;;
7719;SDS011;3902;49.474;8.616;2022-10-17T16:23:57;2.50;;;2.30;;
7719;SDS011;3902;49.474;8.616;2022-10-17T16:26:24;2.90;;;2.27;;
7719;SDS011;3902;49.474;8.616;2022-10-17T16:28:50;2.50;;;2.30;;
7719;SDS011;3902;49.474;8.616;2022-10-17T16:31:20;3.00;;;2.77;;
7719;SDS011;3902;49.474;8.616;2022-10-17T16:33:48;3.90;;;2.50;;
7719;SDS011;3902;49.474;8.616;2022-10-17T16:36:15;2.50;;;2.30;;
7719;SDS011;3902;49.474;8.616;2022-10-17T16:38:41;3.67;;;2.50;;
7719;SDS011;3902;49.474;8.616;2022-10-17T16:43:53;2.80;;;2.50;;
7719;SDS011;3902;49.474;8.616;2022-10-17T16:46:20;3.80;;;2.90;;
7719;SDS011;3902;49.474;8.616;2022-10-17T16:48:47;4.30;;;2.60;;
7719;SDS011;3902;49.474;8.616;2022-10-17T16:51:13;3.30;;;2.87;;
7719;SDS011;3902;49.474;8.616;2022-10-17T16:53:40;3.47;;;3.10;;
7719;SDS011;3902;49.474;8.616;2022-10-17T16:56:12;3.27;;;2.97;;
7719;SDS011;3902;49.474;8.616;2022-10-17T16:58:40;4.80;;;3.10;;
7719;SDS011;3902;49.474;8.616;2022-10-17T17:01:10;3.20;;;2.90;;
7719;SDS011;3902;49.474;8.616;2022-10-17T17:03:41;4.20;;;3.23;;
7719;SDS011;3902;49.474;8.616;2022-10-17T17:06:08;4.00;;;2.50;;
7719;SDS011;3902;49.474;8.616;2022-10-17T17:08:37;3.13;;;2.83;;